Time;durP1;ratioP1;P1;durP2;ratioP2;P2;SDS_P1;SDS_P2;PMS_P1;PMS_P2;Temp;Humidity;BMP_temperature;BMP_pressure;BME280_temperature;BME280_humidity;BME280_pressure;Samples;Min_cycle;Max_cycle;Signal;HPM_P1;HPM_P2
2021/12/10 00:01:47;;;;;;;35.97;20.37;;;4.80;98.80;;;4.58;71.31;94056.22;4978826;28;20490;-56
2021/12/10 00:04:15;;;;;;;42.67;21.30;;;4.80;98.80;;;4.59;71.39;94066.50;4971432;28;20444;-57
2021/12/10 00:06:45;;;;;;;37.80;21.30;;;4.80;98.90;;;4.59;71.54;94063.91;4972604;28;20474;-57
2021/12/10 00:09:17;;;;;;;34.97;21.10;;;4.80;98.90;;;4.61;71.65;94061.19;4972768;28;20448;-56
2021/12/10 00:11:48;;;;;;;35.90;20.20;;;4.90;99.00;;;4.61;71.53;94056.78;4974105;28;20521;-59
2021/12/10 00:14:16;;;;;;;36.73;20.97;;;4.80;98.90;;;4.61;71.25;94050.75;4972455;28;20448;-58
2021/12/10 00:16:43;;;;;;;39.33;21.00;;;4.80;98.80;;;4.61;71.90;94069.00;4974137;28;21023;-58
2021/12/10 00:19:22;;;;;;;35.73;22.27;;;4.80;98.90;;;4.60;71.66;94054.31;4977812;28;20454;-56
2021/12/10 00:21:50;;;;;;;34.33;20.60;;;4.80;98.90;;;4.61;71.49;94064.59;4978720;28;20557;-56
2021/12/10 00:24:20;;;;;;;40.80;21.73;;;4.80;98.90;;;4.62;71.79;94058.47;4981138;28;20512;-57
2021/12/10 00:26:48;;;;;;;61.57;33.63;;;4.80;99.00;;;4.63;71.91;94057.50;4976330;28;21054;-58
2021/12/10 00:29:17;;;;;;;30.90;20.33;;;4.90;99.10;;;4.66;71.76;94041.63;4973297;28;20980;-58
2021/12/10 00:31:49;;;;;;;44.23;22.27;;;4.90;99.10;;;4.69;72.11;94024.91;4968058;28;20585;-57
2021/12/10 00:34:24;;;;;;;33.00;20.03;;;4.90;99.30;;;4.73;71.95;94028.94;4973283;28;20516;-56
2021/12/10 00:36:53;;;;;;;34.80;21.10;;;4.90;99.20;;;4.77;71.79;94055.53;4970677;28;20471;-58
2021/12/10 00:39:24;;;;;;;32.67;20.37;;;5.00;99.30;;;4.79;72.26;94046.66;4976335;28;20470;-57
2021/12/10 00:41:52;;;;;;;32.17;20.57;;;5.00;99.30;;;4.80;71.91;94048.34;4976962;28;20479;-58
2021/12/10 00:44:19;;;;;;;34.70;20.23;;;5.00;99.20;;;4.80;71.93;94050.94;4978471;28;20459;-57
2021/12/10 00:46:46;;;;;;;37.20;20.40;;;5.00;99.30;;;4.82;72.03;94035.19;4976275;28;20553;-58
2021/12/10 00:49:14;;;;;;;35.00;21.60;;;5.00;99.30;;;4.84;72.10;94044.50;4972891;28;20447;-57
2021/12/10 00:51:42;;;;;;;29.17;19.27;;;5.00;99.40;;;4.87;72.30;94048.66;4970309;28;20499;-58
2021/12/10 00:54:10;;;;;;;29.37;19.93;;;5.10;99.50;;;4.88;71.92;94036.44;4982034;28;20530;-59
2021/12/10 00:56:40;;;;;;;35.53;19.93;;;5.10;99.30;;;4.89;72.26;94028.50;4967178;28;20475;-58
2021/12/10 00:59:07;;;;;;;32.47;20.30;;;5.10;99.50;;;4.92;72.39;94030.03;4971205;28;20449;-56
2021/12/10 01:01:35;;;;;;;33.47;19.97;;;5.10;99.60;;;4.93;72.15;94032.50;4972935;28;21027;-57
2021/12/10 01:04:04;;;;;;;29.80;18.57;;;5.20;99.60;;;4.96;72.72;94015.81;4974298;28;20455;-56
2021/12/10 01:06:32;;;;;;;30.70;19.70;;;5.20;99.70;;;5.00;72.78;94017.19;4978165;28;20485;-57
2021/12/10 01:09:11;;;;;;;30.47;18.93;;;5.20;99.90;;;5.02;72.26;94034.34;4981315;28;20539;-56
2021/12/10 01:11:43;;;;;;;28.77;18.30;;;5.20;99.70;;;5.04;72.58;94042.06;4971819;28;20503;-57
2021/12/10 01:14:17;;;;;;;33.83;20.87;;;5.30;99.70;;;5.05;72.57;94035.03;4972312;28;20447;-58
2021/12/10 01:25:12;;;;;;;38.03;20.07;;;5.30;99.90;;;5.07;73.08;94040.97;4972611;28;20594;-55
2021/12/10 01:27:45;;;;;;;39.20;22.13;;;5.30;99.90;;;5.07;72.84;94025.34;4970443;28;20447;-59
2021/12/10 01:30:17;;;;;;;38.03;22.57;;;5.30;99.80;;;5.06;72.75;94024.50;4970111;28;20448;-57
2021/12/10 01:32:47;;;;;;;34.70;21.40;;;5.30;99.90;;;5.07;72.64;94022.75;4976340;28;20474;-56
2021/12/10 01:35:17;;;;;;;32.97;19.77;;;5.30;99.90;;;5.08;72.30;94008.72;4971157;28;20534;-57
2021/12/10 01:37:45;;;;;;;29.60;18.57;;;5.30;99.90;;;5.08;72.91;93999.16;4974551;28;20811;-58
2021/12/10 01:40:13;;;;;;;43.53;18.97;;;5.30;99.90;;;5.10;72.98;93999.03;4975189;28;20486;-58
2021/12/10 01:42:45;;;;;;;31.80;19.33;;;5.30;99.90;;;5.12;73.04;93995.31;4970706;28;20502;-57
2021/12/10 01:45:20;;;;;;;31.73;18.77;;;5.30;99.90;;;5.14;73.20;93985.59;4970229;28;21171;-57
2021/12/10 01:47:53;;;;;;;39.40;20.27;;;5.30;99.90;;;5.17;73.54;93992.31;4969347;28;20465;-58
2021/12/10 01:50:20;;;;;;;32.47;18.40;;;5.40;99.90;;;5.17;73.18;94000.16;4974324;28;20454;-58
2021/12/10 01:52:52;;;;;;;28.10;18.30;;;5.40;99.90;;;5.20;73.19;93995.53;4978899;28;20556;-56
2021/12/10 01:55:21;;;;;;;33.83;18.90;;;5.40;99.90;;;5.21;73.53;93996.34;4978096;28;20825;-57
2021/12/10 01:57:50;;;;;;;24.60;17.67;;;5.40;99.90;;;5.22;73.33;93990.19;4971196;28;20462;-57
2021/12/10 02:00:18;;;;;;;30.53;18.17;;;5.40;99.90;;;5.21;73.95;93978.09;4978377;28;20470;-58
2021/12/10 02:02:46;;;;;;;26.13;17.13;;;5.40;99.90;;;5.21;73.83;93978.09;4970846;28;20459;-56
2021/12/10 02:05:14;;;;;;;27.70;16.23;;;5.40;99.90;;;5.22;73.52;93974.53;4974531;28;20462;-58
2021/12/10 02:07:41;;;;;;;22.07;16.27;;;5.40;99.90;;;5.24;73.70;93979.63;4976923;28;20456;-58
2021/12/10 02:10:10;;;;;;;23.73;16.43;;;5.40;99.90;;;5.26;73.94;93981.13;4970624;28;20488;-58
2021/12/10 02:12:37;;;;;;;36.47;20.33;;;5.40;99.90;;;5.28;73.75;93984.41;4974174;28;20499;-58
2021/12/10 02:15:10;;;;;;;27.50;17.87;;;5.50;99.90;;;5.28;73.60;93979.19;4973918;28;20562;-57
2021/12/10 02:17:40;;;;;;;26.50;16.70;;;5.50;99.90;;;5.28;73.91;93967.97;4974072;28;20558;-56
2021/12/10 02:20:11;;;;;;;29.70;17.80;;;5.50;99.90;;;5.29;73.77;93949.56;4969535;28;20463;-56
2021/12/10 02:22:40;;;;;;;28.23;16.87;;;5.50;99.90;;;5.30;73.97;93946.03;4969652;28;20836;-57
2021/12/10 02:25:08;;;;;;;26.47;16.47;;;5.50;99.90;;;5.30;74.21;93947.78;4977832;28;20951;-58
2021/12/10 02:27:35;;;;;;;29.43;17.87;;;5.50;99.90;;;5.29;74.49;93946.16;4972575;28;20475;-57
2021/12/10 02:30:03;;;;;;;27.40;15.13;;;5.50;99.90;;;5.29;73.69;93933.94;4970703;28;20474;-57
2021/12/10 02:32:31;;;;;;;35.50;18.63;;;5.50;99.90;;;5.28;74.02;93924.44;4969811;28;20491;-57
2021/12/10 02:34:58;;;;;;;24.40;15.80;;;5.50;99.90;;;5.28;74.20;93929.66;4972178;28;20467;-58
2021/12/10 02:37:25;;;;;;;25.87;17.30;;;5.50;99.90;;;5.28;74.16;93937.50;4973871;28;20483;-57
2021/12/10 02:39:54;;;;;;;27.53;17.80;;;5.50;99.90;;;5.24;74.34;93949.16;4972827;28;20980;-58
2021/12/10 02:42:21;;;;;;;31.60;17.30;;;5.50;99.90;;;5.20;74.08;93947.75;4976238;28;20490;-58
2021/12/10 02:44:48;;;;;;;23.33;15.67;;;5.40;99.90;;;5.19;74.22;93954.75;4973550;28;20463;-58
2021/12/10 02:47:16;;;;;;;27.70;17.60;;;5.40;99.90;;;5.17;74.77;93963.66;4969418;28;21046;-59
2021/12/10 02:49:44;;;;;;;27.17;16.17;;;5.40;99.90;;;5.17;74.56;93977.53;4974778;28;21010;-56
2021/12/10 02:52:11;;;;;;;30.17;17.20;;;5.40;99.90;;;5.18;74.19;93973.13;4969553;28;21643;-56
2021/12/10 02:54:39;;;;;;;28.73;16.93;;;5.40;99.90;;;5.19;75.37;93985.22;4969546;28;20448;-58
2021/12/10 02:57:12;;;;;;;25.90;16.10;;;5.40;99.90;;;5.21;75.12;93984.13;4981021;28;20482;-57
2021/12/10 02:59:39;;;;;;;24.50;15.10;;;5.40;99.90;;;5.24;75.73;93971.81;4969708;28;20906;-58
2021/12/10 03:02:11;;;;;;;22.33;14.70;;;5.40;99.90;;;5.26;75.41;93985.53;4971260;28;20478;-58
2021/12/10 03:04:38;;;;;;;27.63;15.00;;;5.40;99.90;;;5.24;75.36;93977.81;4971657;28;20557;-58
2021/12/10 03:07:12;;;;;;;21.03;13.53;;;5.50;99.90;;;5.24;75.42;93972.63;4969824;28;20479;-57
2021/12/10 03:09:40;;;;;;;24.77;15.90;;;5.40;99.90;;;5.23;75.68;93977.97;4973381;28;20494;-56
2021/12/10 03:12:09;;;;;;;22.90;13.40;;;5.40;99.90;;;5.25;75.30;93963.84;4972873;28;20495;-58
2021/12/10 03:14:43;;;;;;;25.10;14.40;;;5.40;99.90;;;5.27;75.47;93966.31;4967340;28;20747;-57
2021/12/10 03:17:13;;;;;;;19.77;14.03;;;5.40;99.90;;;5.24;75.36;93950.94;4973868;28;21049;-59
2021/12/10 03:19:41;;;;;;;25.10;15.00;;;5.50;99.90;;;5.31;75.64;93968.50;4969388;28;20467;-57
2021/12/10 03:22:08;;;;;;;20.13;13.90;;;5.50;99.90;;;5.30;75.39;93969.50;4973154;28;20479;-58
2021/12/10 03:24:35;;;;;;;23.47;13.80;;;5.50;99.90;;;5.30;75.56;93956.44;4974201;28;20451;-56
2021/12/10 03:27:05;;;;;;;19.47;13.23;;;5.50;99.90;;;5.31;75.75;93952.06;4976622;28;20483;-58
2021/12/10 03:29:35;;;;;;;19.20;12.57;;;5.50;99.90;;;5.32;75.38;93957.13;4976878;28;20518;-58
2021/12/10 03:32:06;;;;;;;17.27;12.17;;;5.50;99.90;;;5.31;75.92;93952.88;4978809;28;20490;-57
2021/12/10 03:34:36;;;;;;;21.53;13.57;;;5.50;99.90;;;5.32;76.33;93951.94;4976697;28;20836;-58
2021/12/10 03:37:04;;;;;;;19.23;12.90;;;5.50;99.90;;;5.34;76.18;93964.81;4972123;28;20984;-56
2021/12/10 03:39:31;;;;;;;24.03;13.87;;;5.50;99.90;;;5.36;76.10;93965.50;4978872;28;20834;-57
2021/12/10 03:41:59;;;;;;;17.90;12.90;;;5.50;99.90;;;5.38;76.31;93954.00;4972333;28;20467;-57
2021/12/10 03:44:26;;;;;;;17.53;12.93;;;5.60;99.90;;;5.41;76.35;93955.53;4972358;28;20451;-57
2021/12/10 03:46:56;;;;;;;23.33;11.80;;;5.60;99.90;;;5.44;76.29;93978.75;4974389;28;20483;-57
2021/12/10 03:49:23;;;;;;;20.00;11.87;;;5.60;99.90;;;5.45;76.62;93963.91;4976356;28;20538;-57
2021/12/10 03:51:51;;;;;;;20.83;11.90;;;5.70;99.90;;;5.49;77.16;93967.91;4973859;28;20494;-58
2021/12/10 03:54:18;;;;;;;17.97;12.07;;;5.70;99.90;;;5.53;76.93;93974.50;4975662;28;20486;-57
2021/12/10 03:56:46;;;;;;;20.03;11.63;;;5.70;99.90;;;5.57;77.22;93968.06;4978688;28;20479;-57
2021/12/10 03:59:15;;;;;;;17.50;12.27;;;5.70;99.90;;;5.61;77.14;93985.13;4976598;28;20545;-55
2021/12/10 04:01:44;;;;;;;20.90;12.30;;;5.80;99.90;;;5.62;77.19;93976.31;4972415;28;20479;-58
2021/12/10 04:04:15;;;;;;;15.93;11.80;;;5.80;99.90;;;5.63;77.34;93977.16;4978209;28;20488;-58
2021/12/10 04:06:42;;;;;;;22.80;13.07;;;5.80;99.90;;;5.66;77.53;93971.69;4969948;28;20889;-58
2021/12/10 04:09:09;;;;;;;22.00;11.87;;;5.80;99.90;;;5.69;77.51;93972.25;4971474;28;20987;-58
2021/12/10 04:11:37;;;;;;;14.90;11.23;;;5.90;99.90;;;5.71;77.88;93975.53;4974366;28;20908;-57
2021/12/10 04:14:06;;;;;;;22.43;12.50;;;5.90;99.90;;;5.73;77.86;93964.97;4974146;28;20448;-58
2021/12/10 04:16:34;;;;;;;26.60;12.43;;;5.90;99.90;;;5.75;77.60;93969.09;4972787;28;20562;-59
2021/12/10 04:19:02;;;;;;;19.50;13.03;;;5.90;99.90;;;5.79;77.45;93984.50;4976884;28;20448;-58
2021/12/10 04:21:31;;;;;;;24.47;12.73;;;6.00;99.90;;;5.81;77.20;93985.19;4978412;28;20476;-56
2021/12/10 04:23:58;;;;;;;19.57;12.90;;;6.00;99.90;;;5.83;77.13;93980.66;4981664;28;20976;-58
2021/12/10 04:26:27;;;;;;;18.03;11.70;;;6.00;99.90;;;5.86;77.28;93993.44;4971246;28;20487;-56
2021/12/10 04:28:54;;;;;;;19.33;12.73;;;6.00;99.90;;;5.89;77.43;93991.38;4978007;28;20456;-56
2021/12/10 04:31:22;;;;;;;18.00;12.23;;;6.10;99.90;;;5.92;77.86;93985.09;4977385;28;20855;-59
2021/12/10 04:33:49;;;;;;;17.77;11.90;;;6.10;99.90;;;5.96;77.67;93993.47;4972091;28;20929;-57
2021/12/10 04:36:17;;;;;;;18.03;11.77;;;6.10;99.90;;;5.97;76.99;93977.72;4974194;28;20478;-56
2021/12/10 04:38:46;;;;;;;23.90;14.47;;;6.10;99.90;;;6.00;77.10;93987.06;4971520;28;20466;-57
2021/12/10 04:41:14;;;;;;;19.50;13.20;;;6.20;99.90;;;5.98;77.32;93987.19;4975004;28;20558;-58
2021/12/10 04:43:43;;;;;;;18.97;12.07;;;6.20;99.90;;;5.99;76.87;93986.22;4977396;28;20451;-57
2021/12/10 04:46:11;;;;;;;17.53;12.37;;;6.20;99.90;;;6.00;77.41;93990.50;4970441;28;20486;-58
2021/12/10 04:48:53;;;;;;;17.70;11.70;;;6.20;99.90;;;6.00;77.78;93993.09;4980349;28;20547;-57
2021/12/10 04:51:23;;;;;;;20.57;13.30;;;6.20;99.90;;;6.01;77.38;94001.75;4969170;28;20554;-58
2021/12/10 04:53:52;;;;;;;19.20;12.53;;;6.20;99.90;;;6.00;76.80;93995.72;4967335;28;20871;-57
2021/12/10 04:56:19;;;;;;;21.60;14.13;;;6.20;99.90;;;6.00;77.17;93998.31;4971043;28;21109;-58
2021/12/10 04:58:47;;;;;;;28.77;15.73;;;6.20;99.90;;;5.99;77.32;93994.03;4972143;28;20465;-57
2021/12/10 05:01:14;;;;;;;24.53;15.70;;;6.20;99.90;;;5.99;76.95;93998.44;4972594;28;20501;-55
2021/12/10 05:03:41;;;;;;;32.93;21.27;;;6.20;99.90;;;5.97;76.63;94000.38;4975516;28;20467;-58
2021/12/10 05:06:09;;;;;;;35.30;20.37;;;6.10;99.90;;;5.96;76.84;94002.13;4975224;28;20976;-56
2021/12/10 05:08:37;;;;;;;30.70;19.50;;;6.20;99.90;;;5.93;77.35;93995.41;4980895;28;20454;-58
2021/12/10 05:11:07;;;;;;;37.47;21.40;;;6.10;99.90;;;5.93;77.05;93994.56;4975528;28;20816;-56
2021/12/10 05:13:35;;;;;;;34.70;20.07;;;6.10;99.90;;;5.92;76.74;93987.69;4971051;28;21019;-58
2021/12/10 05:16:02;;;;;;;27.73;18.10;;;6.10;99.90;;;5.91;76.81;93996.47;4972705;28;20559;-57
2021/12/10 05:18:35;;;;;;;31.10;17.70;;;6.10;99.90;;;5.90;77.15;93993.06;4974846;28;20463;-61
2021/12/10 05:21:04;;;;;;;25.93;16.87;;;6.10;99.90;;;5.90;77.31;94000.03;4970651;28;20467;-58
2021/12/10 05:23:33;;;;;;;33.33;16.67;;;6.10;99.90;;;5.89;77.80;93990.56;4972715;28;20455;-58
2021/12/10 05:26:00;;;;;;;20.40;13.90;;;6.10;99.90;;;5.91;77.52;93986.03;4973761;28;20478;-57
2021/12/10 05:28:29;;;;;;;25.73;16.40;;;6.10;99.90;;;5.93;77.42;93986.72;4972360;28;20467;-59
2021/12/10 05:30:57;;;;;;;26.57;16.47;;;6.10;99.90;;;5.96;77.29;94007.34;4975608;28;21023;-58
2021/12/10 05:33:24;;;;;;;24.03;16.60;;;6.10;99.90;;;5.98;77.20;94005.47;4970125;28;20487;-58
2021/12/10 05:35:52;;;;;;;24.17;15.53;;;6.20;99.90;;;5.96;77.73;93996.91;4976014;28;21027;-56
2021/12/10 05:38:20;;;;;;;18.97;13.50;;;6.10;99.90;;;5.98;78.24;93987.19;4972173;28;20854;-58
2021/12/10 05:40:48;;;;;;;29.40;16.03;;;6.20;99.90;;;6.03;78.17;93976.34;4976652;28;20475;-60
2021/12/10 05:43:15;;;;;;;20.77;13.30;;;6.20;99.90;;;6.05;78.29;93975.25;4970467;28;20463;-57
2021/12/10 05:45:44;;;;;;;22.00;14.03;;;6.20;99.90;;;6.09;78.56;93971.41;4976692;28;20548;-57
2021/12/10 05:48:11;;;;;;;17.30;11.93;;;6.30;99.90;;;6.15;78.68;93974.44;4972350;28;20455;-57
2021/12/10 05:50:39;;;;;;;21.47;14.73;;;6.30;99.90;;;6.19;79.33;93971.41;4969378;28;21059;-58
2021/12/10 05:53:06;;;;;;;30.70;17.10;;;6.30;99.90;;;6.24;79.09;93971.84;4974696;28;21064;-57
2021/12/10 05:55:36;;;;;;;20.90;14.87;;;6.40;99.90;;;6.28;78.17;93973.22;4970206;28;20475;-57
2021/12/10 05:58:04;;;;;;;55.67;30.97;;;6.40;99.90;;;6.30;77.81;93982.72;4973568;28;20478;-59
2021/12/10 06:00:33;;;;;;;56.00;31.30;;;6.40;99.90;;;6.23;76.58;93979.81;4976166;28;20479;-59
2021/12/10 06:03:02;;;;;;;50.43;27.93;;;6.40;99.90;;;6.15;76.88;93971.81;4970662;28;20470;-59
2021/12/10 06:05:31;;;;;;;47.20;28.00;;;6.40;99.90;;;6.05;76.75;93956.97;4971358;28;20486;-58
2021/12/10 06:07:58;;;;;;;41.73;24.87;;;6.30;99.90;;;5.99;77.23;93962.72;4970859;28;20463;-56
2021/12/10 06:10:26;;;;;;;39.80;24.77;;;6.20;99.90;;;5.94;76.81;93970.13;4971383;28;20486;-56
2021/12/10 06:12:53;;;;;;;40.10;25.90;;;6.20;99.90;;;5.89;76.74;93962.69;4971667;28;20491;-58
2021/12/10 06:15:21;;;;;;;41.77;25.37;;;6.10;99.90;;;5.85;76.66;93976.13;4975698;28;20447;-58
2021/12/10 06:17:49;;;;;;;34.97;24.37;;;6.10;99.90;;;5.80;77.51;93966.09;4977629;28;20549;-59
2021/12/10 06:20:20;;;;;;;37.70;23.30;;;6.00;99.90;;;5.78;77.36;93959.34;4972458;28;20450;-58
2021/12/10 06:22:47;;;;;;;36.13;23.00;;;6.00;99.90;;;5.75;77.74;93969.09;4976157;28;20450;-58
2021/12/10 06:25:14;;;;;;;34.70;22.60;;;6.00;99.90;;;5.73;77.47;93973.63;4979190;28;20980;-59
2021/12/10 06:27:44;;;;;;;43.50;24.57;;;5.90;99.90;;;5.69;77.53;93976.66;4969572;28;20461;-59
2021/12/10 06:30:14;;;;;;;47.13;25.90;;;5.90;99.90;;;5.64;77.34;93979.66;4969610;28;20468;-58
2021/12/10 06:32:42;;;;;;;38.90;25.37;;;5.90;99.90;;;5.60;77.43;93985.25;4971483;28;20479;-59
2021/12/10 06:35:10;;;;;;;47.73;26.20;;;5.80;99.90;;;5.57;78.28;93988.94;4969376;28;20547;-58
2021/12/10 06:37:38;;;;;;;41.20;25.70;;;5.80;99.90;;;5.57;77.94;93976.72;4974850;28;20459;-59
2021/12/10 06:40:08;;;;;;;40.20;27.20;;;5.80;99.90;;;5.59;77.50;93994.84;4974100;28;20454;-59
2021/12/10 06:42:35;;;;;;;46.07;26.20;;;5.80;99.90;;;5.58;78.07;93959.31;4973423;28;20538;-59
2021/12/10 06:45:04;;;;;;;47.50;27.17;;;5.80;99.90;;;5.61;78.13;93979.91;4976343;28;20494;-59
2021/12/10 06:47:31;;;;;;;54.33;28.27;;;5.80;99.90;;;5.61;77.67;93966.03;4972312;28;20467;-59
2021/12/10 06:49:59;;;;;;;41.00;26.23;;;5.80;99.90;;;5.60;79.12;93962.59;4974163;28;20466;-57
2021/12/10 06:52:26;;;;;;;49.00;28.67;;;5.80;99.90;;;5.63;78.47;93983.22;4975278;28;20540;-59
2021/12/10 06:54:55;;;;;;;43.97;26.30;;;5.80;99.90;;;5.65;77.89;93952.59;4976416;28;20455;-59
2021/12/10 06:57:22;;;;;;;41.70;25.97;;;5.80;99.90;;;5.69;78.10;93982.69;4975409;28;20976;-58
2021/12/10 06:59:49;;;;;;;47.43;26.93;;;5.80;99.90;;;5.72;78.49;93973.78;4976666;28;21003;-58
2021/12/10 07:02:16;;;;;;;39.83;25.40;;;5.90;99.90;;;5.77;78.29;93971.56;4977184;28;20605;-58
2021/12/10 07:04:44;;;;;;;42.27;24.93;;;5.90;99.90;;;5.82;78.00;93992.88;4976384;28;20892;-59
2021/12/10 07:07:12;;;;;;;44.97;28.00;;;6.00;99.90;;;5.83;78.31;93962.41;4980914;28;20477;-58
2021/12/10 07:09:39;;;;;;;46.93;29.40;;;6.00;99.90;;;5.85;77.96;93984.78;4982649;28;20447;-58
2021/12/10 07:12:09;;;;;;;47.70;26.00;;;6.00;99.90;;;5.86;77.66;93980.41;4976639;28;20479;-59
2021/12/10 07:14:36;;;;;;;36.83;24.00;;;6.00;99.90;;;5.85;77.70;93976.94;4976620;28;20490;-59
2021/12/10 07:17:05;;;;;;;37.50;21.40;;;6.00;99.90;;;5.86;77.95;93983.00;4972194;28;21020;-58
2021/12/10 07:19:32;;;;;;;44.23;23.10;;;6.00;99.90;;;5.85;78.37;93970.91;4975645;28;20864;-58
2021/12/10 07:21:59;;;;;;;40.00;24.47;;;6.00;99.90;;;5.84;78.68;93992.75;4976847;28;20488;-58
2021/12/10 07:24:27;;;;;;;37.63;19.40;;;6.00;99.90;;;5.86;78.67;93989.03;4973579;28;20444;-58
2021/12/10 07:26:55;;;;;;;34.80;21.70;;;6.00;99.90;;;5.89;78.86;93983.56;4977492;28;20863;-58
2021/12/10 07:29:23;;;;;;;29.70;21.03;;;6.10;99.90;;;5.95;78.57;93983.97;4978960;28;20506;-59
2021/12/10 07:31:51;;;;;;;40.90;23.67;;;6.10;99.90;;;6.02;78.52;93987.75;4975224;28;20483;-58
2021/12/10 07:34:18;;;;;;;28.60;20.20;;;6.10;99.90;;;6.07;78.97;93970.72;4976333;28;20860;-59
2021/12/10 07:36:45;;;;;;;29.57;19.60;;;6.20;99.90;;;6.16;78.49;93973.47;4982294;28;20471;-58
2021/12/10 07:39:13;;;;;;;33.43;20.93;;;6.30;99.90;;;6.23;78.34;93980.63;4981498;28;20455;-59
2021/12/10 07:41:41;;;;;;;35.97;22.57;;;6.40;99.90;;;6.31;77.73;93976.53;4983226;28;20478;-59
2021/12/10 07:44:09;;;;;;;42.63;24.23;;;6.50;99.90;;;6.39;78.24;93987.13;4974434;28;20514;-58
2021/12/10 07:46:39;;;;;;;38.13;21.97;;;6.50;99.90;;;6.44;78.04;93980.53;4975653;28;21138;-58
2021/12/10 07:49:15;;;;;;;46.23;27.93;;;6.60;99.90;;;6.50;77.76;93986.16;4977077;28;20447;-59
2021/12/10 07:51:44;;;;;;;51.57;27.67;;;6.60;99.90;;;6.57;77.40;93998.53;4978132;28;20469;-58
2021/12/10 07:54:12;;;;;;;72.40;42.37;;;6.70;99.90;;;6.61;76.84;93988.63;4976813;28;20485;-59
2021/12/10 07:56:39;;;;;;;96.10;46.30;;;6.80;99.90;;;6.62;77.10;93982.47;4976816;28;20807;-59
2021/12/10 07:59:06;;;;;;;93.17;46.60;;;6.80;99.90;;;6.60;76.35;93987.81;4979681;28;20462;-58
2021/12/10 08:01:34;;;;;;;86.57;45.13;;;6.80;99.90;;;6.57;76.31;93982.88;4974585;28;20462;-58
2021/12/10 08:04:03;;;;;;;94.60;51.00;;;6.80;99.90;;;6.54;75.96;93980.53;4977065;28;20474;-58
2021/12/10 08:06:31;;;;;;;103.93;51.17;;;6.70;99.90;;;6.52;75.75;93984.22;4980301;28;20470;-58
2021/12/10 08:08:59;;;;;;;84.83;49.00;;;6.70;99.90;;;6.46;75.62;93989.03;4975224;28;20448;-59
2021/12/10 08:11:26;;;;;;;89.40;47.57;;;6.70;99.90;;;6.44;75.26;93993.59;4975490;28;20585;-58
2021/12/10 08:13:54;;;;;;;102.40;49.43;;;6.60;99.90;;;6.41;75.23;93978.19;4976690;28;20487;-58
2021/12/10 08:16:23;;;;;;;101.67;51.40;;;6.60;99.90;;;6.42;74.99;93986.84;4979815;28;20478;-58
2021/12/10 08:18:51;;;;;;;91.67;52.03;;;6.60;99.90;;;6.46;75.32;93996.88;4979269;28;20514;-58
2021/12/10 08:21:19;;;;;;;95.87;53.70;;;6.60;99.90;;;6.58;75.92;93988.91;4973734;28;20467;-59
2021/12/10 08:23:47;;;;;;;96.20;51.00;;;6.70;99.90;;;6.64;75.30;94009.25;4973748;28;20452;-59
2021/12/10 08:26:15;;;;;;;103.30;51.80;;;6.80;99.90;;;6.74;74.66;93983.97;4974359;28;20482;-58
2021/12/10 08:28:42;;;;;;;90.00;49.10;;;6.90;99.90;;;7.22;74.90;93991.88;4971516;28;20832;-59
2021/12/10 08:31:10;;;;;;;91.07;49.77;;;7.20;99.90;;;7.76;74.17;93994.72;4970679;28;20479;-59
2021/12/10 08:33:37;;;;;;;89.70;50.00;;;7.60;99.90;;;8.11;73.74;93985.34;4971445;28;20494;-59
2021/12/10 08:36:08;;;;;;;88.43;46.20;;;8.00;99.90;;;8.29;72.48;93995.81;4977556;28;21027;-59
2021/12/10 08:38:37;;;;;;;87.33;47.33;;;8.30;99.90;;;8.43;72.08;93992.72;4973801;28;20451;-58
2021/12/10 08:41:06;;;;;;;85.63;46.33;;;8.40;99.90;;;8.56;72.06;93977.47;4978462;28;20538;-58
2021/12/10 08:43:34;;;;;;;86.47;45.97;;;8.60;99.90;;;8.72;71.67;93989.06;4975640;28;20446;-59
2021/12/10 08:46:01;;;;;;;111.43;57.33;;;8.80;99.90;;;9.02;71.37;93966.06;4977804;28;20478;-59
2021/12/10 08:48:29;;;;;;;84.90;48.23;;;9.10;99.90;;;9.51;70.40;93985.56;4974404;28;20447;-58
2021/12/10 08:50:58;;;;;;;96.17;54.60;;;9.40;99.90;;;9.79;69.07;93980.13;4973507;28;20542;-59
2021/12/10 08:53:25;;;;;;;120.87;58.77;;;9.80;99.80;;;10.05;67.77;93979.25;4974198;28;20524;-58
2021/12/10 08:55:55;;;;;;;113.50;57.67;;;10.00;97.50;;;10.23;68.19;93981.78;4971708;28;20482;-59
2021/12/10 08:58:23;;;;;;;108.10;57.47;;;10.20;98.00;;;10.28;67.63;93973.41;4971965;28;20454;-58
2021/12/10 09:00:59;;;;;;;108.97;58.20;;;10.30;97.30;;;10.23;66.73;93987.03;4973828;28;20992;-59
2021/12/10 09:03:26;;;;;;;108.97;56.03;;;10.30;96.40;;;10.12;66.58;94000.47;4975678;28;20517;-59
2021/12/10 09:05:54;;;;;;;96.70;53.00;;;10.20;96.10;;;10.09;66.62;93991.09;4978754;28;20455;-59
2021/12/10 09:08:21;;;;;;;99.77;50.70;;;10.20;95.90;;;9.98;65.50;93963.28;4977221;28;20451;-58
2021/12/10 09:10:49;;;;;;;103.77;50.70;;;10.10;95.30;;;9.84;65.31;93974.41;4973120;28;20468;-59
2021/12/10 09:13:20;;;;;;;105.40;52.50;;;10.00;95.20;;;9.71;65.91;93979.25;4972825;28;20459;-59
2021/12/10 09:15:50;;;;;;;99.17;51.90;;;9.80;95.80;;;9.62;66.45;93973.13;4971056;28;20556;-61
2021/12/10 09:18:18;;;;;;;103.07;51.33;;;9.80;96.20;;;9.57;66.76;93976.22;4973641;28;20435;-59
2021/12/10 09:20:48;;;;;;;101.57;52.97;;;9.70;96.50;;;9.54;66.20;93978.34;4977168;28;20468;-59
2021/12/10 09:23:19;;;;;;;99.87;51.30;;;9.70;96.30;;;9.55;66.78;93964.25;4976221;28;20448;-59
2021/12/10 09:25:47;;;;;;;107.63;52.37;;;9.70;96.60;;;9.57;65.65;93944.72;4973459;28;20474;-58
2021/12/10 09:28:14;;;;;;;101.53;53.00;;;9.70;95.70;;;9.52;66.12;93968.00;4971778;28;20451;-58
2021/12/10 09:30:46;;;;;;;100.20;50.60;;;9.70;95.80;;;9.54;66.50;93970.47;4979549;28;20552;-58
2021/12/10 09:33:13;;;;;;;112.27;55.77;;;9.60;96.10;;;9.58;66.65;93977.88;4973305;28;20447;-58
2021/12/10 09:35:40;;;;;;;107.53;53.20;;;9.70;96.40;;;9.68;66.18;93972.50;4971480;28;20486;-59
2021/12/10 09:38:08;;;;;;;98.63;53.23;;;9.80;96.00;;;9.94;66.07;93961.97;4982251;28;20481;-58
2021/12/10 09:40:38;;;;;;;116.13;56.10;;;9.90;96.50;;;10.20;65.11;93937.41;4970502;28;20567;-59
2021/12/10 09:43:07;;;;;;;115.90;54.70;;;10.20;95.30;;;10.44;65.16;93927.97;4979835;28;20466;-59
2021/12/10 09:45:36;;;;;;;107.37;51.97;;;10.40;95.30;;;10.55;63.67;93920.59;4974949;28;20525;-59
2021/12/10 09:48:05;;;;;;;104.87;53.77;;;10.50;94.30;;;10.69;64.06;93923.53;4974923;28;20964;-58
2021/12/10 09:50:36;;;;;;;108.13;55.50;;;10.70;94.40;;;10.85;63.88;93912.22;4972982;28;20479;-58
2021/12/10 09:53:04;;;;;;;101.00;50.73;;;10.90;94.20;;;10.99;63.42;93903.66;4972914;28;20530;-59
2021/12/10 09:55:31;;;;;;;104.80;52.87;;;11.00;94.10;;;11.21;62.98;93906.56;4974518;28;20564;-59
2021/12/10 09:57:59;;;;;;;100.93;51.40;;;11.20;93.70;;;11.20;62.36;93908.41;4975752;28;20478;-59
2021/12/10 10:00:34;;;;;;;98.90;49.77;;;11.20;93.00;;;11.17;62.32;93903.47;4974035;28;20463;-58
2021/12/10 10:03:01;;;;;;;107.40;55.87;;;11.30;92.80;;;11.46;62.22;93899.44;4972897;28;20469;-58
2021/12/10 10:05:31;;;;;;;123.73;59.87;;;11.50;93.10;;;12.14;61.44;93903.28;4974404;28;20817;-59
2021/12/10 10:08:00;;;;;;;115.27;58.50;;;12.00;92.80;;;13.00;60.25;93897.91;4972001;28;20458;-59
2021/12/10 10:10:28;;;;;;;114.07;54.73;;;12.60;92.60;;;13.83;59.24;93882.03;4972367;28;20455;-58
2021/12/10 10:12:56;;;;;;;127.23;62.90;;;13.30;92.30;;;14.48;57.79;93880.34;4973216;28;20988;-58
2021/12/10 10:15:25;;;;;;;97.63;51.40;;;14.00;91.20;;;15.17;55.21;93865.69;4973330;28;20490;-59
2021/12/10 10:17:53;;;;;;;96.23;50.80;;;14.80;86.90;;;15.74;55.22;93868.28;4975098;28;20459;-59
2021/12/10 10:20:20;;;;;;;94.70;51.00;;;15.30;87.50;;;16.08;54.26;93871.91;4975294;28;20447;-59
2021/12/10 10:22:49;;;;;;;84.43;45.63;;;15.70;85.40;;;15.95;51.98;93867.38;4974225;28;20888;-58
2021/12/10 10:25:18;;;;;;;100.20;49.10;;;15.80;79.20;;;15.46;52.44;93870.97;4976495;28;20451;-59
2021/12/10 10:27:45;;;;;;;85.30;44.97;;;15.50;77.20;;;14.99;54.37;93881.22;4978564;28;20459;-59
2021/12/10 10:30:16;;;;;;;63.00;33.97;;;15.20;81.10;;;14.90;55.01;93877.88;4975725;28;20463;-59
2021/12/10 10:32:45;;;;;;;81.97;40.27;;;15.00;82.00;;;14.70;54.72;93888.31;4968317;28;20452;-59